Time;durP1;ratioP1;P1;durP2;ratioP2;P2;SDS_P1;SDS_P2;PMS_P1;PMS_P2;Temp;Humidity;BMP_temperature;BMP_pressure;BME280_temperature;BME280_humidity;BME280_pressure;Samples;Min_cycle;Max_cycle;Signal;HPM_P1;HPM_P2
2023/03/11 00:02:00;;;;;;;;;10.00;10.00;;;;;;;;5071342;28;8802;-73
2023/03/11 00:04:25;;;;;;;;;12.00;11.25;;;;;;;;5071020;28;8880;-73
2023/03/11 00:06:51;;;;;;;;;13.25;13.25;;;;;;;;5071111;28;8818;-73
2023/03/11 00:09:16;;;;;;;;;10.50;10.50;;;;;;;;5071036;28;8828;-72
2023/03/11 00:11:41;;;;;;;;;8.50;8.50;;;;;;;;5070879;28;8806;-72
2023/03/11 00:14:06;;;;;;;;;11.00;11.00;;;;;;;;5069689;28;8782;-72
2023/03/11 00:16:31;;;;;;;;;9.75;9.75;;;;;;;;5071201;28;8802;-73
2023/03/11 00:18:57;;;;;;;;;11.25;11.25;;;;;;;;5069605;28;8818;-72
2023/03/11 00:21:22;;;;;;;;;12.50;10.25;;;;;;;;5068884;28;8825;-72
2023/03/11 00:23:47;;;;;;;;;11.50;10.00;;;;;;;;5071144;28;8813;-73
2023/03/11 00:26:13;;;;;;;;;10.25;10.25;;;;;;;;5070938;28;8928;-72
2023/03/11 00:28:38;;;;;;;;;9.75;9.75;;;;;;;;5070994;28;8932;-73
2023/03/11 00:31:03;;;;;;;;;3.75;3.75;;;;;;;;5070933;28;8863;-72
2023/03/11 00:33:29;;;;;;;;;4.50;3.50;;;;;;;;5070792;28;8851;-72
2023/03/11 00:35:54;;;;;;;;;3.50;3.50;;;;;;;;5071124;28;8801;-73
2023/03/11 00:38:19;;;;;;;;;3.50;3.00;;;;;;;;5070915;28;8801;-72
2023/03/11 00:40:46;;;;;;;;;6.00;5.00;;;;;;;;5070973;28;8806;-73
2023/03/11 00:43:12;;;;;;;;;4.50;4.50;;;;;;;;5070911;28;9650;-72
2023/03/11 00:45:37;;;;;;;;;7.50;4.50;;;;;;;;5070461;28;10191;-72
2023/03/11 00:48:03;;;;;;;;;5.00;4.00;;;;;;;;5070555;28;8824;-72
2023/03/11 00:50:29;;;;;;;;;9.25;8.25;;;;;;;;5070748;28;8770;-72
2023/03/11 00:52:54;;;;;;;;;5.50;4.75;;;;;;;;5070031;28;9552;-72
2023/03/11 00:55:21;;;;;;;;;5.25;5.25;;;;;;;;5070666;28;10222;-72
2023/03/11 00:57:46;;;;;;;;;8.00;8.00;;;;;;;;5070762;28;8790;-73
2023/03/11 01:00:13;;;;;;;;;7.00;5.50;;;;;;;;5073450;28;10520;-72
2023/03/11 01:02:38;;;;;;;;;8.00;4.25;;;;;;;;5074264;28;8779;-72
2023/03/11 01:05:04;;;;;;;;;6.50;5.00;;;;;;;;5074033;28;10419;-72
2023/03/11 01:07:29;;;;;;;;;8.75;7.00;;;;;;;;5072772;28;8856;-73
2023/03/11 01:09:54;;;;;;;;;8.50;7.75;;;;;;;;5074182;28;8798;-73
2023/03/11 01:12:19;;;;;;;;;7.50;4.00;;;;;;;;5074033;28;8798;-73
2023/03/11 01:14:45;;;;;;;;;6.00;6.00;;;;;;;;5072333;28;8887;-73
2023/03/11 01:17:10;;;;;;;;;4.75;4.75;;;;;;;;5073985;28;8809;-72
2023/03/11 01:19:35;;;;;;;;;5.00;4.75;;;;;;;;5073509;28;8813;-73
2023/03/11 01:22:00;;;;;;;;;3.00;3.00;;;;;;;;5073905;28;8782;-72
2023/03/11 01:24:25;;;;;;;;;3.75;3.75;;;;;;;;5073656;28;8810;-72
2023/03/11 01:26:51;;;;;;;;;6.00;3.50;;;;;;;;5073757;28;8818;-73
2023/03/11 01:29:16;;;;;;;;;3.00;3.00;;;;;;;;5073453;28;9560;-73
2023/03/11 01:31:41;;;;;;;;;2.25;2.25;;;;;;;;5073686;28;8816;-73
2023/03/11 01:34:06;;;;;;;;;3.00;3.00;;;;;;;;5073396;28;8811;-72
2023/03/11 01:36:31;;;;;;;;;3.00;3.00;;;;;;;;5073648;28;8802;-72
2023/03/11 01:38:57;;;;;;;;;3.00;1.50;;;;;;;;5073752;28;8809;-72
2023/03/11 01:41:22;;;;;;;;;2.75;1.50;;;;;;;;5073425;28;8891;-72
2023/03/11 01:43:50;;;;;;;;;3.00;3.00;;;;;;;;5071870;28;9659;-73
2023/03/11 01:46:18;;;;;;;;;3.00;3.00;;;;;;;;5073255;28;8790;-73
2023/03/11 01:48:53;;;;;;;;;4.50;2.50;;;;;;;;5073532;28;10176;-73
2023/03/11 01:51:27;;;;;;;;;4.00;4.00;;;;;;;;5073486;28;10113;-72
2023/03/11 01:53:54;;;;;;;;;4.75;3.00;;;;;;;;5073468;28;10086;-72
2023/03/11 01:56:19;;;;;;;;;3.50;3.00;;;;;;;;5061954;28;10259;-73
2023/03/11 01:58:48;;;;;;;;;2.25;2.25;;;;;;;;5052953;28;10255;-72
2023/03/11 02:01:14;;;;;;;;;3.00;3.00;;;;;;;;5053462;28;8816;-72
2023/03/11 02:03:40;;;;;;;;;3.25;3.25;;;;;;;;5052900;28;10080;-72
2023/03/11 02:06:08;;;;;;;;;3.00;3.00;;;;;;;;5053119;28;10166;-73
2023/03/11 02:08:33;;;;;;;;;2.00;2.00;;;;;;;;5052900;28;8804;-73
2023/03/11 02:10:59;;;;;;;;;3.75;3.00;;;;;;;;5052000;28;10130;-72
2023/03/11 02:13:25;;;;;;;;;6.75;5.00;;;;;;;;5052633;28;8784;-72
2023/03/11 02:15:50;;;;;;;;;3.75;3.50;;;;;;;;5052919;28;10132;-72
2023/03/11 02:18:19;;;;;;;;;4.50;4.50;;;;;;;;5052828;28;8827;-72
2023/03/11 02:20:53;;;;;;;;;6.75;6.25;;;;;;;;5067083;28;8867;-72
2023/03/11 02:23:20;;;;;;;;;6.50;4.75;;;;;;;;5072692;28;10242;-72
2023/03/11 02:25:51;;;;;;;;;7.00;5.00;;;;;;;;5072666;28;10265;-72
2023/03/11 02:28:18;;;;;;;;;4.00;4.00;;;;;;;;5072490;28;10026;-72
2023/03/11 02:30:44;;;;;;;;;7.75;7.75;;;;;;;;5072431;28;10112;-72
2023/03/11 02:33:10;;;;;;;;;5.25;5.25;;;;;;;;5072897;28;10192;-72
2023/03/11 02:35:35;;;;;;;;;8.00;8.00;;;;;;;;5071082;28;10317;-73
2023/03/11 02:38:01;;;;;;;;;8.25;8.25;;;;;;;;5072765;28;10420;-73
2023/03/11 02:40:28;;;;;;;;;10.25;7.75;;;;;;;;5072605;28;8798;-72
2023/03/11 02:42:54;;;;;;;;;11.00;9.00;;;;;;;;5072123;28;8786;-72
2023/03/11 02:45:22;;;;;;;;;9.00;8.75;;;;;;;;5072530;28;10211;-73
2023/03/11 02:47:47;;;;;;;;;13.25;10.50;;;;;;;;5072568;28;10247;-73
2023/03/11 02:50:14;;;;;;;;;9.50;9.25;;;;;;;;5072373;28;11145;-72
2023/03/11 02:52:40;;;;;;;;;10.50;10.50;;;;;;;;5072448;28;9581;-72
2023/03/11 02:55:05;;;;;;;;;10.25;10.25;;;;;;;;5072675;28;10369;-72
2023/03/11 02:57:31;;;;;;;;;10.00;8.75;;;;;;;;5071872;28;8812;-73
2023/03/11 02:59:56;;;;;;;;;11.25;10.25;;;;;;;;5073061;28;8819;-73
2023/03/11 03:02:21;;;;;;;;;10.00;10.00;;;;;;;;5072241;28;8818;-72
2023/03/11 03:04:47;;;;;;;;;13.00;12.75;;;;;;;;5072831;28;8833;-74
2023/03/11 03:07:12;;;;;;;;;14.00;14.00;;;;;;;;5072669;28;8810;-73
2023/03/11 03:09:37;;;;;;;;;19.75;17.00;;;;;;;;5072223;28;8797;-72
2023/03/11 03:12:03;;;;;;;;;19.50;17.25;;;;;;;;5071873;28;8774;-72
2023/03/11 03:14:28;;;;;;;;;16.50;15.50;;;;;;;;5071981;28;8825;-72
2023/03/11 03:16:53;;;;;;;;;14.75;13.00;;;;;;;;5071685;28;8774;-72
2023/03/11 03:19:18;;;;;;;;;14.75;12.25;;;;;;;;5071806;28;8806;-72
2023/03/11 03:21:44;;;;;;;;;13.75;12.25;;;;;;;;5069718;28;8813;-73
2023/03/11 03:24:09;;;;;;;;;17.50;15.50;;;;;;;;5071526;28;9552;-72
2023/03/11 03:26:35;;;;;;;;;12.00;10.00;;;;;;;;5053349;28;8842;-72
2023/03/11 03:29:00;;;;;;;;;9.50;8.25;;;;;;;;5071802;28;8794;-73
2023/03/11 03:31:25;;;;;;;;;8.50;8.50;;;;;;;;5071503;28;8809;-71
2023/03/11 03:33:50;;;;;;;;;8.75;8.25;;;;;;;;5071832;28;8797;-70
2023/03/11 03:36:15;;;;;;;;;10.50;9.25;;;;;;;;5071604;28;8904;-71
2023/03/11 03:38:41;;;;;;;;;11.00;8.50;;;;;;;;5071722;28;8803;-71
2023/03/11 03:41:07;;;;;;;;;5.00;5.00;;;;;;;;5071228;28;9684;-73
2023/03/11 03:43:32;;;;;;;;;7.75;6.25;;;;;;;;5071548;28;8805;-73
2023/03/11 03:45:58;;;;;;;;;12.00;11.00;;;;;;;;5071508;28;8809;-73
2023/03/11 03:48:24;;;;;;;;;19.25;18.00;;;;;;;;5071494;28;8786;-71
2023/03/11 03:50:49;;;;;;;;;18.25;17.00;;;;;;;;5069963;28;10687;-72
2023/03/11 03:53:14;;;;;;;;;16.75;16.75;;;;;;;;5071536;28;8790;-72
2023/03/11 03:55:39;;;;;;;;;14.75;13.00;;;;;;;;5071143;28;8817;-72
2023/03/11 03:58:04;;;;;;;;;15.00;14.00;;;;;;;;5071345;28;8794;-73
2023/03/11 04:00:30;;;;;;;;;16.00;14.50;;;;;;;;5071312;28;8782;-72
2023/03/11 04:02:55;;;;;;;;;12.75;11.75;;;;;;;;5071077;28;8798;-71
2023/03/11 04:05:20;;;;;;;;;16.00;16.00;;;;;;;;5071240;28;8809;-73
2023/03/11 04:07:46;;;;;;;;;15.25;13.00;;;;;;;;5071173;28;8794;-73
2023/03/11 04:10:12;;;;;;;;;15.25;10.75;;;;;;;;5070970;28;9561;-73
2023/03/11 04:12:37;;;;;;;;;13.00;11.50;;;;;;;;5071224;28;8782;-72
2023/03/11 04:15:02;;;;;;;;;13.75;12.50;;;;;;;;5070788;28;10779;-72
2023/03/11 04:17:28;;;;;;;;;13.00;11.00;;;;;;;;5070961;28;8836;-73
2023/03/11 04:19:53;;;;;;;;;13.50;12.50;;;;;;;;5070715;28;8880;-72
2023/03/11 04:22:18;;;;;;;;;16.00;15.00;;;;;;;;5070921;28;9564;-73
2023/03/11 04:24:43;;;;;;;;;13.25;13.25;;;;;;;;5070529;28;8850;-72
2023/03/11 04:27:08;;;;;;;;;13.50;13.00;;;;;;;;5069654;28;9618;-72
2023/03/11 04:29:34;;;;;;;;;13.75;12.50;;;;;;;;5070876;28;8816;-73
2023/03/11 04:31:59;;;;;;;;;8.25;8.25;;;;;;;;5071093;28;8822;-72
2023/03/11 04:34:24;;;;;;;;;10.25;9.25;;;;;;;;5070439;28;8821;-72
2023/03/11 04:36:53;;;;;;;;;8.75;8.75;;;;;;;;5070850;28;8832;-73
2023/03/11 04:39:18;;;;;;;;;11.25;9.75;;;;;;;;5069570;28;9599;-73
2023/03/11 04:41:43;;;;;;;;;8.75;8.50;;;;;;;;5070932;28;10827;-73
2023/03/11 04:44:08;;;;;;;;;9.25;8.50;;;;;;;;5070660;28;8821;-72
2023/03/11 04:46:33;;;;;;;;;9.00;8.00;;;;;;;;5058085;28;8855;-73
2023/03/11 04:48:59;;;;;;;;;8.50;7.00;;;;;;;;5050771;28;8801;-72
2023/03/11 04:51:24;;;;;;;;;5.25;5.25;;;;;;;;5050648;28;8784;-73
2023/03/11 04:53:49;;;;;;;;;5.50;5.25;;;;;;;;5050340;28;8812;-73
2023/03/11 04:56:14;;;;;;;;;8.00;8.00;;;;;;;;5050501;28;8805;-73
2023/03/11 04:58:39;;;;;;;;;9.50;5.75;;;;;;;;5050714;28;8793;-72
2023/03/11 05:01:05;;;;;;;;;5.50;5.00;;;;;;;;5049263;28;8851;-72
2023/03/11 05:03:30;;;;;;;;;9.75;8.75;;;;;;;;5050347;28;8804;-73
2023/03/11 05:05:55;;;;;;;;;7.75;6.00;;;;;;;;5048946;28;9600;-72
2023/03/11 05:08:21;;;;;;;;;8.00;6.50;;;;;;;;5050253;28;8781;-72
2023/03/11 05:10:46;;;;;;;;;9.25;8.00;;;;;;;;5050438;28;8796;-72
2023/03/11 05:13:11;;;;;;;;;6.50;5.00;;;;;;;;5048841;28;8800;-72
2023/03/11 05:15:37;;;;;;;;;4.25;4.25;;;;;;;;5050282;28;8819;-72
2023/03/11 05:18:03;;;;;;;;;4.75;4.75;;;;;;;;5050153;28;8812;-71
2023/03/11 05:20:28;;;;;;;;;7.25;7.25;;;;;;;;5062077;28;8817;-73
2023/03/11 05:22:53;;;;;;;;;5.00;5.00;;;;;;;;5070011;28;10467;-72
2023/03/11 05:25:18;;;;;;;;;10.00;9.00;;;;;;;;5070268;28;8907;-73
2023/03/11 05:27:44;;;;;;;;;9.50;5.75;;;;;;;;5070372;28;8818;-72
2023/03/11 05:30:09;;;;;;;;;9.00;7.25;;;;;;;;5070144;28;8798;-72
2023/03/11 05:32:35;;;;;;;;;8.50;6.50;;;;;;;;5069224;28;8825;-72
2023/03/11 05:35:00;;;;;;;;;4.00;3.00;;;;;;;;5069066;28;9385;-72
2023/03/11 05:37:25;;;;;;;;;7.00;6.25;;;;;;;;5069871;28;8864;-72
2023/03/11 05:39:50;;;;;;;;;3.00;3.00;;;;;;;;5070018;28;8798;-72
2023/03/11 05:42:16;;;;;;;;;6.50;5.50;;;;;;;;5069947;28;8818;-72
2023/03/11 05:44:41;;;;;;;;;1.75;1.75;;;;;;;;5070078;28;8830;-72
2023/03/11 05:47:06;;;;;;;;;2.00;2.00;;;;;;;;5073050;28;8813;-72
2023/03/11 05:49:31;;;;;;;;;6.00;4.75;;;;;;;;5073309;28;9568;-72
2023/03/11 05:51:56;;;;;;;;;3.75;3.75;;;;;;;;5072164;28;8821;-72
2023/03/11 05:54:22;;;;;;;;;3.00;3.00;;;;;;;;5072477;28;8837;-72
2023/03/11 05:56:47;;;;;;;;;6.25;3.25;;;;;;;;5073145;28;8791;-74
2023/03/11 05:59:13;;;;;;;;;3.75;3.75;;;;;;;;5072181;28;8933;-72
2023/03/11 06:01:39;;;;;;;;;3.50;3.50;;;;;;;;5072660;28;9632;-72
2023/03/11 06:04:04;;;;;;;;;4.75;4.00;;;;;;;;5072998;28;10409;-72
2023/03/11 06:06:30;;;;;;;;;4.00;3.00;;;;;;;;5071767;28;8852;-72
2023/03/11 06:08:55;;;;;;;;;6.00;3.75;;;;;;;;5073178;28;8898;-72
2023/03/11 06:11:24;;;;;;;;;2.75;2.25;;;;;;;;5071813;28;8801;-72
2023/03/11 06:13:51;;;;;;;;;3.75;3.75;;;;;;;;5073199;28;8778;-72
2023/03/11 06:16:16;;;;;;;;;3.00;3.00;;;;;;;;5073287;28;10363;-71
2023/03/11 06:18:41;;;;;;;;;4.00;3.00;;;;;;;;5073925;28;11029;-71
2023/03/11 06:21:07;;;;;;;;;2.25;2.25;;;;;;;;5074008;28;8821;-73
2023/03/11 06:23:32;;;;;;;;;3.25;2.25;;;;;;;;5074500;28;8738;-72
2023/03/11 06:26:03;;;;;;;;;4.00;4.00;;;;;;;;5074718;28;10333;-73
2023/03/11 06:28:28;;;;;;;;;4.75;4.00;;;;;;;;5073643;28;8798;-73
2023/03/11 06:30:55;;;;;;;;;3.75;3.75;;;;;;;;5073062;28;10405;-73
2023/03/11 06:33:21;;;;;;;;;4.75;3.25;;;;;;;;5072909;28;8770;-73
2023/03/11 06:35:54;;;;;;;;;5.00;3.00;;;;;;;;5071271;28;10259;-73
2023/03/11 06:38:19;;;;;;;;;5.50;4.00;;;;;;;;5072533;28;8770;-74
2023/03/11 06:40:44;;;;;;;;;6.50;3.00;;;;;;;;5071037;28;10370;-72
2023/03/11 06:43:10;;;;;;;;;8.25;7.00;;;;;;;;5077142;28;8937;-72
2023/03/11 06:45:35;;;;;;;;;4.00;4.00;;;;;;;;5084685;28;8818;-72
2023/03/11 06:48:00;;;;;;;;;7.00;3.75;;;;;;;;5092421;28;8815;-72
2023/03/11 06:50:26;;;;;;;;;6.00;6.00;;;;;;;;5092377;28;8847;-72
2023/03/11 06:52:51;;;;;;;;;7.25;7.25;;;;;;;;5092454;28;9613;-72
2023/03/11 06:55:17;;;;;;;;;7.25;6.25;;;;;;;;5092283;28;10497;-72
2023/03/11 06:57:44;;;;;;;;;7.25;4.00;;;;;;;;5092297;28;8800;-72
2023/03/11 07:00:12;;;;;;;;;7.25;6.00;;;;;;;;5092230;28;8886;-72
2023/03/11 07:02:38;;;;;;;;;5.25;4.00;;;;;;;;5090690;28;10522;-72
2023/03/11 07:05:03;;;;;;;;;7.00;7.00;;;;;;;;5092097;28;10494;-72
2023/03/11 07:07:28;;;;;;;;;5.00;5.00;;;;;;;;5092023;28;8795;-72
2023/03/11 07:09:55;;;;;;;;;6.00;6.00;;;;;;;;5091449;28;8795;-72
2023/03/11 07:12:21;;;;;;;;;7.50;5.50;;;;;;;;5091550;28;8772;-72
2023/03/11 07:14:47;;;;;;;;;4.00;4.00;;;;;;;;5091778;28;10373;-72
2023/03/11 07:17:12;;;;;;;;;8.25;7.50;;;;;;;;5091968;28;10346;-73
2023/03/11 07:19:37;;;;;;;;;5.50;5.50;;;;;;;;5085554;28;8830;-72
2023/03/11 07:22:02;;;;;;;;;7.25;6.50;;;;;;;;5072068;28;9544;-72
2023/03/11 07:24:28;;;;;;;;;5.00;5.00;;;;;;;;5071758;28;8829;-72
2023/03/11 07:26:53;;;;;;;;;7.25;7.25;;;;;;;;5071970;28;8809;-72
2023/03/11 07:29:19;;;;;;;;;4.00;4.00;;;;;;;;5071733;28;8804;-73
2023/03/11 07:31:44;;;;;;;;;5.00;5.00;;;;;;;;5071879;28;8780;-72
2023/03/11 07:34:10;;;;;;;;;8.25;7.25;;;;;;;;5071592;28;10184;-72
2023/03/11 07:36:37;;;;;;;;;5.00;5.00;;;;;;;;5071799;28;8798;-72
2023/03/11 07:39:04;;;;;;;;;6.75;5.00;;;;;;;;5071376;28;11121;-71
2023/03/11 07:41:30;;;;;;;;;8.00;8.00;;;;;;;;5071463;28;10240;-72
2023/03/11 07:43:57;;;;;;;;;5.25;5.25;;;;;;;;5063631;28;11081;-72
2023/03/11 07:46:23;;;;;;;;;8.75;7.75;;;;;;;;5050461;28;10359;-72
2023/03/11 07:48:49;;;;;;;;;6.75;6.75;;;;;;;;5050959;28;10431;-72
2023/03/11 07:51:17;;;;;;;;;6.75;6.75;;;;;;;;5050878;28;10503;-72
2023/03/11 07:53:43;;;;;;;;;4.25;4.00;;;;;;;;5050985;28;8811;-72
2023/03/11 07:56:09;;;;;;;;;5.75;5.75;;;;;;;;5050946;28;11089;-72
2023/03/11 07:58:35;;;;;;;;;4.00;4.00;;;;;;;;5051090;28;8799;-72
2023/03/11 08:01:07;;;;;;;;;5.00;5.00;;;;;;;;5050226;28;10276;-72
2023/03/11 08:03:33;;;;;;;;;3.50;3.50;;;;;;;;5051204;28;8812;-72
2023/03/11 08:05:59;;;;;;;;;4.00;4.00;;;;;;;;5050890;28;10223;-72
2023/03/11 08:08:24;;;;;;;;;4.25;3.50;;;;;;;;5050401;28;9006;-72
2023/03/11 08:10:49;;;;;;;;;3.75;3.75;;;;;;;;5051263;28;8804;-73
2023/03/11 08:13:14;;;;;;;;;5.75;4.25;;;;;;;;5051049;28;8851;-72
2023/03/11 08:15:40;;;;;;;;;3.00;3.00;;;;;;;;5050903;28;8851;-73
2023/03/11 08:18:05;;;;;;;;;8.25;4.25;;;;;;;;5051133;28;8792;-72
2023/03/11 08:20:30;;;;;;;;;5.75;5.75;;;;;;;;5063471;28;9598;-72
2023/03/11 08:22:55;;;;;;;;;7.25;6.25;;;;;;;;5071390;28;8790;-72
2023/03/11 08:25:20;;;;;;;;;4.00;3.75;;;;;;;;5070896;28;9615;-72
2023/03/11 08:27:46;;;;;;;;;5.00;5.00;;;;;;;;5071044;28;8814;-72
2023/03/11 08:30:11;;;;;;;;;3.75;3.75;;;;;;;;5070626;28;8905;-73
2023/03/11 08:32:36;;;;;;;;;6.50;4.25;;;;;;;;5071247;28;8806;-72
2023/03/11 08:35:01;;;;;;;;;3.75;2.75;;;;;;;;5070994;28;8936;-75
2023/03/11 08:37:27;;;;;;;;;3.00;3.00;;;;;;;;5070938;28;8790;-73
2023/03/11 08:39:52;;;;;;;;;10.75;9.50;;;;;;;;5070893;28;8794;-73
2023/03/11 08:42:18;;;;;;;;;5.50;5.00;;;;;;;;5069379;28;8821;-73
2023/03/11 08:44:43;;;;;;;;;4.50;2.75;;;;;;;;5071473;28;8774;-73
2023/03/11 08:47:08;;;;;;;;;8.25;6.00;;;;;;;;5070770;28;10175;-74
2023/03/11 08:49:34;;;;;;;;;5.50;5.50;;;;;;;;5070721;28;8806;-72
2023/03/11 08:52:00;;;;;;;;;7.50;6.00;;;;;;;;5070908;28;8822;-72
2023/03/11 08:54:25;;;;;;;;;4.75;4.75;;;;;;;;5070609;28;8790;-72
2023/03/11 08:56:50;;;;;;;;;4.25;4.25;;;;;;;;5070445;28;10139;-72
2023/03/11 08:59:16;;;;;;;;;7.25;7.25;;;;;;;;5070355;28;8810;-73
2023/03/11 09:01:41;;;;;;;;;8.00;5.00;;;;;;;;5070021;28;8802;-71
2023/03/11 09:04:07;;;;;;;;;5.50;5.50;;;;;;;;5069115;28;8805;-74
2023/03/11 09:06:32;;;;;;;;;5.75;4.75;;;;;;;;5070525;28;8817;-73
2023/03/11 09:08:57;;;;;;;;;7.00;6.00;;;;;;;;5070645;28;8802;-72
2023/03/11 09:11:23;;;;;;;;;4.75;4.00;;;;;;;;5070301;28;8790;-72
2023/03/11 09:13:48;;;;;;;;;6.00;6.00;;;;;;;;5070126;28;8814;-72
2023/03/11 09:16:15;;;;;;;;;5.00;5.00;;;;;;;;5070407;28;8814;-72
2023/03/11 09:18:40;;;;;;;;;4.25;4.25;;;;;;;;5070298;28;8826;-72
2023/03/11 09:21:05;;;;;;;;;4.00;4.00;;;;;;;;5072700;28;10792;-72
2023/03/11 09:23:31;;;;;;;;;4.50;4.50;;;;;;;;5073764;28;8929;-72
2023/03/11 09:25:56;;;;;;;;;5.50;5.50;;;;;;;;5073589;28;8833;-72
2023/03/11 09:28:21;;;;;;;;;6.00;4.50;;;;;;;;5073505;28;8809;-72
2023/03/11 09:30:47;;;;;;;;;5.00;5.00;;;;;;;;5073643;28;8817;-71
2023/03/11 09:33:12;;;;;;;;;0.50;0.50;;;;;;;;5073791;28;8794;-71
2023/03/11 09:35:38;;;;;;;;;12.50;9.75;;;;;;;;5052365;28;8809;-72
2023/03/11 09:38:03;;;;;;;;;6.00;6.00;;;;;;;;5053758;28;8785;-72
2023/03/11 09:40:38;;;;;;;;;5.00;5.00;;;;;;;;5054497;28;8922;-72
2023/03/11 09:43:12;;;;;;;;;9.50;9.50;;;;;;;;5054334;28;8793;-73
2023/03/11 09:45:40;;;;;;;;;6.00;6.00;;;;;;;;5068750;28;10470;-72
2023/03/11 09:48:18;;;;;;;;;5.50;5.50;;;;;;;;5093370;28;10012;-72
2023/03/11 09:50:46;;;;;;;;;6.50;6.50;;;;;;;;5093747;28;9944;-72
2023/03/11 09:53:21;;;;;;;;;5.00;5.00;;;;;;;;5092534;28;10937;-72
2023/03/11 09:55:51;;;;;;;;;5.25;5.25;;;;;;;;5093712;28;10725;-72
2023/03/11 09:58:17;;;;;;;;;7.25;7.25;;;;;;;;5093294;28;9868;-72
2023/03/11 10:00:43;;;;;;;;;5.00;5.00;;;;;;;;5079852;28;10014;-72
2023/03/11 10:03:15;;;;;;;;;5.00;5.00;;;;;;;;5071834;28;8798;-72
2023/03/11 10:05:41;;;;;;;;;7.00;7.00;;;;;;;;5073194;28;10080;-73
2023/03/11 10:08:15;;;;;;;;;5.25;5.25;;;;;;;;5073037;28;10062;-72
2023/03/11 10:10:48;;;;;;;;;7.75;7.00;;;;;;;;5072914;28;8778;-73
2023/03/11 10:13:33;;;;;;;;;5.50;5.50;;;;;;;;5072564;28;10103;-72
2023/03/11 10:16:06;;;;;;;;;4.00;4.00;;;;;;;;5072479;28;10175;-73
2023/03/11 10:18:48;;;;;;;;;7.75;7.00;;;;;;;;5071716;28;10116;-72
2023/03/11 10:21:16;;;;;;;;;7.25;6.50;;;;;;;;5072453;28;10124;-72
2023/03/11 10:24:00;;;;;;;;;8.00;8.00;;;;;;;;5072975;28;10018;-72
2023/03/11 10:26:32;;;;;;;;;7.25;6.00;;;;;;;;5072467;28;10337;-73
2023/03/11 10:29:13;;;;;;;;;6.00;4.50;;;;;;;;5072549;28;9958;-72
2023/03/11 10:31:42;;;;;;;;;4.50;4.50;;;;;;;;5071613;28;10042;-72
2023/03/11 10:34:23;;;;;;;;;6.25;6.25;;;;;;;;5072663;28;10119;-72
2023/03/11 10:36:55;;;;;;;;;7.00;6.00;;;;;;;;5072534;28;10082;-72
2023/03/11 10:39:20;;;;;;;;;7.00;5.00;;;;;;;;5072393;28;10837;-73
2023/03/11 10:41:50;;;;;;;;;6.00;6.00;;;;;;;;5071569;28;10063;-71
2023/03/11 10:44:19;;;;;;;;;5.00;2.75;;;;;;;;5072295;28;8770;-72
2023/03/11 10:46:44;;;;;;;;;7.25;6.75;;;;;;;;5072452;28;10077;-72
2023/03/11 10:49:14;;;;;;;;;7.25;6.00;;;;;;;;5072368;28;10185;-73
2023/03/11 10:51:40;;;;;;;;;6.50;6.50;;;;;;;;5072374;28;8785;-72
2023/03/11 10:54:06;;;;;;;;;6.50;6.50;;;;;;;;5072526;28;9997;-73
2023/03/11 10:56:32;;;;;;;;;7.50;7.50;;;;;;;;5072229;28;10135;-72
2023/03/11 10:58:58;;;;;;;;;7.50;6.25;;;;;;;;5072146;28;8791;-72
2023/03/11 11:01:24;;;;;;;;;7.00;5.50;;;;;;;;5072331;28;10091;-72
2023/03/11 11:03:51;;;;;;;;;6.50;6.50;;;;;;;;5072452;28;10035;-72
2023/03/11 11:06:33;;;;;;;;;4.50;4.50;;;;;;;;5071914;28;8814;-72
2023/03/11 11:09:05;;;;;;;;;7.00;7.00;;;;;;;;5057166;28;10065;-72
2023/03/11 11:11:30;;;;;;;;;6.00;6.00;;;;;;;;5052207;28;10103;-72
2023/03/11 11:13:57;;;;;;;;;7.50;6.00;;;;;;;;5050823;28;10199;-72
2023/03/11 11:16:22;;;;;;;;;5.00;5.00;;;;;;;;5050883;28;8796;-73
2023/03/11 11:18:58;;;;;;;;;6.00;5.00;;;;;;;;5051500;28;10157;-73
2023/03/11 11:21:31;;;;;;;;;6.75;6.00;;;;;;;;5071485;28;8762;-73
2023/03/11 11:24:07;;;;;;;;;5.75;5.00;;;;;;;;5072211;28;9938;-72
2023/03/11 11:26:32;;;;;;;;;7.75;7.00;;;;;;;;5072099;28;9910;-73
2023/03/11 11:29:07;;;;;;;;;8.00;7.25;;;;;;;;5072058;28;9945;-74
2023/03/11 11:31:32;;;;;;;;;6.75;5.00;;;;;;;;5072111;28;8784;-73
2023/03/11 11:33:57;;;;;;;;;6.25;4.75;;;;;;;;5072124;28;9769;-73
2023/03/11 11:36:26;;;;;;;;;6.00;4.50;;;;;;;;5071847;28;8790;-73
2023/03/11 11:38:53;;;;;;;;;8.50;6.75;;;;;;;;5071359;28;8786;-72
2023/03/11 11:41:19;;;;;;;;;6.25;5.25;;;;;;;;5071589;28;10060;-72
2023/03/11 11:43:44;;;;;;;;;5.50;5.00;;;;;;;;5070624;28;9994;-72
2023/03/11 11:46:17;;;;;;;;;4.50;4.50;;;;;;;;5071553;28;9863;-73
2023/03/11 11:48:53;;;;;;;;;4.25;4.25;;;;;;;;5071687;28;8810;-73
2023/03/11 11:51:26;;;;;;;;;8.25;5.00;;;;;;;;5071570;28;9925;-73
2023/03/11 11:53:52;;;;;;;;;9.00;9.00;;;;;;;;5071553;28;10007;-73
2023/03/11 11:56:17;;;;;;;;;11.00;7.25;;;;;;;;5071323;28;10196;-72
2023/03/11 11:58:42;;;;;;;;;5.75;5.75;;;;;;;;5071523;28;8790;-73
2023/03/11 12:01:13;;;;;;;;;5.00;3.25;;;;;;;;5071562;28;8856;-73
2023/03/11 12:03:47;;;;;;;;;8.00;6.25;;;;;;;;5071207;28;8762;-72
2023/03/11 12:06:15;;;;;;;;;11.00;7.50;;;;;;;;5070951;28;10003;-72
2023/03/11 12:08:41;;;;;;;;;7.00;6.25;;;;;;;;5071150;28;9954;-72
2023/03/11 12:11:09;;;;;;;;;9.00;9.00;;;;;;;;5071229;28;9788;-72
2023/03/11 12:13:49;;;;;;;;;5.75;5.75;;;;;;;;5069833;28;8786;-73
2023/03/11 12:16:28;;;;;;;;;4.50;4.00;;;;;;;;5061968;28;9906;-73
2023/03/11 12:19:00;;;;;;;;;5.00;4.50;;;;;;;;5049467;28;9903;-73
2023/03/11 12:21:44;;;;;;;;;4.75;4.25;;;;;;;;5051118;28;10818;-72
2023/03/11 12:24:09;;;;;;;;;7.00;5.00;;;;;;;;5051018;28;9980;-73
2023/03/11 12:26:37;;;;;;;;;7.75;5.75;;;;;;;;5050918;28;10052;-71
2023/03/11 12:29:21;;;;;;;;;5.00;5.00;;;;;;;;5050882;28;9609;-71
2023/03/11 12:31:46;;;;;;;;;5.25;5.25;;;;;;;;5051293;28;9976;-74
2023/03/11 12:34:13;;;;;;;;;5.75;5.75;;;;;;;;5050898;28;9898;-72
2023/03/11 12:36:40;;;;;;;;;5.75;4.50;;;;;;;;5050638;28;8789;-73
2023/03/11 12:39:27;;;;;;;;;6.25;4.75;;;;;;;;5050698;28;10039;-73
2023/03/11 12:42:10;;;;;;;;;5.25;5.25;;;;;;;;5050707;28;9866;-73
2023/03/11 12:44:37;;;;;;;;;7.50;7.50;;;;;;;;5049416;28;9896;-73
2023/03/11 12:47:21;;;;;;;;;6.50;6.50;;;;;;;;5050713;28;10098;-73
2023/03/11 12:49:48;;;;;;;;;5.00;5.00;;;;;;;;5050733;28;10030;-73
2023/03/11 12:52:16;;;;;;;;;5.00;5.00;;;;;;;;5049147;28;9848;-72
2023/03/11 12:54:42;;;;;;;;;5.75;4.75;;;;;;;;5051509;28;10042;-72
2023/03/11 12:57:17;;;;;;;;;5.75;5.75;;;;;;;;5054133;28;9838;-73
2023/03/11 13:00:00;;;;;;;;;5.00;5.00;;;;;;;;5054240;28;11382;-72
2023/03/11 13:02:41;;;;;;;;;7.50;5.75;;;;;;;;5054177;28;10022;-72
2023/03/11 13:05:09;;;;;;;;;4.00;4.00;;;;;;;;5053915;28;10117;-72
2023/03/11 13:07:57;;;;;;;;;5.75;5.75;;;;;;;;5054380;28;10105;-73
2023/03/11 13:10:28;;;;;;;;;6.25;6.25;;;;;;;;5052745;28;9862;-73
2023/03/11 13:12:54;;;;;;;;;4.75;4.00;;;;;;;;5054766;28;9913;-72
2023/03/11 13:15:19;;;;;;;;;4.00;3.00;;;;;;;;5053513;28;9917;-72
2023/03/11 13:18:12;;;;;;;;;6.00;5.75;;;;;;;;5055007;28;8869;-72
2023/03/11 13:20:40;;;;;;;;;5.50;5.50;;;;;;;;5067763;28;8882;-72
2023/03/11 13:23:11;;;;;;;;;6.00;6.00;;;;;;;;5074222;28;10515;-72
2023/03/11 13:25:39;;;;;;;;;5.25;5.25;;;;;;;;5073711;28;9894;-72
2023/03/11 13:28:23;;;;;;;;;3.75;3.75;;;;;;;;5073703;28;9826;-72
2023/03/11 13:31:06;;;;;;;;;3.00;3.00;;;;;;;;5073436;28;9705;-72
2023/03/11 13:33:32;;;;;;;;;5.75;5.00;;;;;;;;5073828;28;9690;-72
2023/03/11 13:36:07;;;;;;;;;4.00;4.00;;;;;;;;5073463;28;9848;-72
2023/03/11 13:38:50;;;;;;;;;5.75;5.00;;;;;;;;5073705;28;8766;-73
2023/03/11 13:41:18;;;;;;;;;7.00;5.75;;;;;;;;5073587;28;9684;-72
2023/03/11 13:43:45;;;;;;;;;4.00;4.00;;;;;;;;5073586;28;9923;-73
2023/03/11 13:46:15;;;;;;;;;5.50;5.50;;;;;;;;5073542;28;9680;-73
2023/03/11 13:48:44;;;;;;;;;6.25;6.00;;;;;;;;5073456;28;9864;-73
2023/03/11 13:51:15;;;;;;;;;10.00;9.00;;;;;;;;5073137;28;10053;-73
2023/03/11 13:53:40;;;;;;;;;6.75;5.00;;;;;;;;5073448;28;9949;-73
2023/03/11 13:56:15;;;;;;;;;6.00;6.00;;;;;;;;5073423;28;10000;-73
2023/03/11 13:58:40;;;;;;;;;7.00;5.00;;;;;;;;5073358;28;8762;-73
2023/03/11 14:01:05;;;;;;;;;6.50;6.50;;;;;;;;5073378;28;9979;-73
2023/03/11 14:03:34;;;;;;;;;6.50;4.00;;;;;;;;5072875;28;8782;-73
2023/03/11 14:06:07;;;;;;;;;6.00;6.00;;;;;;;;5072417;28;8869;-73
2023/03/11 14:08:33;;;;;;;;;4.50;4.25;;;;;;;;5073289;28;9866;-73
2023/03/11 14:11:11;;;;;;;;;5.50;5.50;;;;;;;;5073071;28;10051;-73
2023/03/11 14:13:40;;;;;;;;;7.75;5.25;;;;;;;;5053170;28;10053;-72
2023/03/11 14:16:05;;;;;;;;;6.25;6.25;;;;;;;;5052817;28;9953;-72
2023/03/11 14:18:36;;;;;;;;;6.75;4.25;;;;;;;;5052747;28;9967;-72
2023/03/11 14:21:03;;;;;;;;;4.50;4.50;;;;;;;;5069501;28;8903;-73
2023/03/11 14:23:31;;;;;;;;;5.50;5.00;;;;;;;;5054740;28;9918;-72
2023/03/11 14:25:58;;;;;;;;;5.75;5.25;;;;;;;;5073020;28;10203;-72
2023/03/11 14:28:24;;;;;;;;;9.00;4.75;;;;;;;;5072675;28;9951;-73
2023/03/11 14:30:57;;;;;;;;;6.00;6.00;;;;;;;;5072669;28;10010;-74
2023/03/11 14:33:22;;;;;;;;;7.50;6.00;;;;;;;;5072698;28;9991;-73
2023/03/11 14:35:54;;;;;;;;;5.75;5.75;;;;;;;;5072723;28;9985;-73
2023/03/11 14:38:24;;;;;;;;;2.25;2.25;;;;;;;;5072686;28;8806;-73
2023/03/11 14:40:57;;;;;;;;;6.00;6.00;;;;;;;;5072624;28;10009;-73
2023/03/11 14:43:22;;;;;;;;;5.50;5.25;;;;;;;;5072688;28;10085;-73
2023/03/11 14:45:49;;;;;;;;;7.00;7.00;;;;;;;;5072539;28;10079;-72
2023/03/11 14:48:19;;;;;;;;;8.00;7.00;;;;;;;;5072443;28;8900;-72
2023/03/11 14:50:48;;;;;;;;;5.00;5.00;;;;;;;;5072250;28;10101;-72